Time;durP1;ratioP1;P1;durP2;ratioP2;P2;SDS_P1;SDS_P2;PMS_P1;PMS_P2;Temp;Humidity;BMP_temperature;BMP_pressure;BME280_temperature;BME280_humidity;BME280_pressure;Samples;Min_cycle;Max_cycle;Signal;HPM_P1;HPM_P2
2021/06/10 00:01:09;;;;;;;0.50;0.50;;;16.40;65.00;;;;;;5112756;28;20040;-73
2021/06/10 00:03:34;;;;;;;1.38;0.50;;;16.40;65.10;;;;;;5112742;28;20047;-74
2021/06/10 00:06:00;;;;;;;0.50;0.40;;;16.30;65.10;;;;;;5077602;28;20047;-75
2021/06/10 00:08:26;;;;;;;0.60;0.50;;;16.30;65.20;;;;;;5094445;28;20043;-74
2021/06/10 00:10:53;;;;;;;0.57;0.50;;;16.30;65.30;;;;;;5112919;28;20088;-76
2021/06/10 00:13:19;;;;;;;0.40;0.40;;;16.30;65.40;;;;;;5094488;28;20035;-75
2021/06/10 00:15:45;;;;;;;0.38;0.30;;;16.20;65.30;;;;;;5112541;28;20450;-76
2021/06/10 00:18:10;;;;;;;0.50;0.50;;;16.20;65.50;;;;;;5094393;28;20065;-76
2021/06/10 00:20:39;;;;;;;0.50;0.50;;;16.20;65.50;;;;;;5094132;28;20058;-74
2021/06/10 00:23:06;;;;;;;0.60;0.40;;;16.20;65.60;;;;;;5112423;28;20047;-75
2021/06/10 00:25:32;;;;;;;0.50;0.50;;;16.10;65.60;;;;;;5112893;28;20782;-75
2021/06/10 00:27:59;;;;;;;0.40;0.40;;;16.10;65.80;;;;;;5077168;28;20067;-75
2021/06/10 00:30:25;;;;;;;0.50;0.50;;;16.10;65.80;;;;;;5094668;28;20097;-75
2021/06/10 00:32:51;;;;;;;0.65;0.55;;;16.10;66.00;;;;;;5112347;28;20115;-74
2021/06/10 00:35:19;;;;;;;0.32;0.32;;;16.00;66.00;;;;;;5112794;28;20066;-76
2021/06/10 00:37:45;;;;;;;0.30;0.30;;;16.00;66.00;;;;;;5094217;28;20092;-75
2021/06/10 00:40:13;;;;;;;0.40;0.40;;;16.00;66.10;;;;;;5094034;28;20390;-74
2021/06/10 00:42:39;;;;;;;0.40;0.40;;;16.00;66.10;;;;;;5112224;28;20080;-73
2021/06/10 00:45:09;;;;;;;0.30;0.30;;;15.90;66.10;;;;;;5113781;28;20051;-74
2021/06/10 00:47:34;;;;;;;0.40;0.40;;;15.90;66.20;;;;;;5097406;28;20044;-74
2021/06/10 00:50:00;;;;;;;0.35;0.35;;;15.90;66.20;;;;;;5116230;28;20031;-74
2021/06/10 00:52:26;;;;;;;0.40;0.40;;;15.90;66.30;;;;;;5063799;28;20028;-74
2021/06/10 00:54:52;;;;;;;0.32;0.32;;;15.80;66.30;;;;;;5116154;28;20392;-74
2021/06/10 00:57:17;;;;;;;0.45;0.40;;;15.80;66.50;;;;;;5097185;28;20552;-76
2021/06/10 00:59:43;;;;;;;0.30;0.30;;;15.80;66.50;;;;;;5097340;28;20054;-75
2021/06/10 01:02:10;;;;;;;0.35;0.35;;;15.80;66.60;;;;;;5098002;28;20044;-75
2021/06/10 01:04:36;;;;;;;0.43;0.43;;;15.70;66.70;;;;;;5097634;28;20036;-75
2021/06/10 01:07:12;;;;;;;0.38;0.38;;;15.70;66.80;;;;;;5080631;28;20038;-76
2021/06/10 01:10:01;;;;;;;0.20;0.20;;;15.70;66.80;;;;;;5098385;28;20446;-76
2021/06/10 01:12:49;;;;;;;0.40;0.40;;;15.60;66.80;;;;;;5083607;28;20122;-75
2021/06/10 01:15:15;;;;;;;0.40;0.40;;;15.70;67.00;;;;;;5081910;28;20455;-75
2021/06/10 01:17:43;;;;;;;0.47;0.47;;;15.60;66.90;;;;;;5115442;28;20509;-76
2021/06/10 01:20:14;;;;;;;0.30;0.30;;;15.60;67.10;;;;;;5097005;28;20043;-76
2021/06/10 01:22:51;;;;;;;0.40;0.40;;;15.50;67.20;;;;;;5115313;28;20144;-76
2021/06/10 01:25:41;;;;;;;0.55;0.55;;;15.50;67.20;;;;;;5081372;28;20401;-76
2021/06/10 01:28:11;;;;;;;0.68;0.45;;;15.50;67.40;;;;;;5096821;28;20099;-76
2021/06/10 01:30:43;;;;;;;0.38;0.38;;;15.50;67.40;;;;;;5115149;28;20035;-76
2021/06/10 01:33:24;;;;;;;0.40;0.40;;;15.30;67.30;;;;;;5115089;28;20043;-76
2021/06/10 01:35:56;;;;;;;0.57;0.40;;;15.40;68.10;;;;;;5096908;28;20051;-76
2021/06/10 01:38:22;;;;;;;0.38;0.32;;;15.40;67.50;;;;;;5096801;28;20040;-76
2021/06/10 01:40:49;;;;;;;0.50;0.50;;;15.40;67.50;;;;;;5079889;28;20146;-76
2021/06/10 01:43:18;;;;;;;0.65;0.55;;;15.40;67.50;;;;;;5063064;28;20181;-76
2021/06/10 01:45:48;;;;;;;0.68;0.47;;;15.30;67.60;;;;;;5096897;28;20082;-76
2021/06/10 01:48:18;;;;;;;0.60;0.40;;;15.30;67.60;;;;;;5080205;28;20119;-76
2021/06/10 01:50:48;;;;;;;0.30;0.30;;;15.30;67.70;;;;;;5079464;28;20502;-76
2021/06/10 01:53:14;;;;;;;0.40;0.40;;;15.30;67.70;;;;;;5114787;28;20374;-76
2021/06/10 01:55:41;;;;;;;0.43;0.43;;;15.30;67.80;;;;;;5079158;28;20066;-76
2021/06/10 01:58:09;;;;;;;0.40;0.40;;;15.30;67.80;;;;;;5079866;28;20093;-76
2021/06/10 02:00:35;;;;;;;0.35;0.35;;;15.20;67.90;;;;;;5096439;28;20058;-76
2021/06/10 02:03:02;;;;;;;0.47;0.47;;;15.20;68.00;;;;;;5114697;28;20112;-76
2021/06/10 02:05:29;;;;;;;0.35;0.30;;;15.20;68.10;;;;;;5096293;28;20401;-76
2021/06/10 02:07:56;;;;;;;0.43;0.43;;;15.10;68.10;;;;;;5096425;28;20069;-76
2021/06/10 02:10:24;;;;;;;0.40;0.40;;;15.10;68.20;;;;;;5114844;28;20080;-76
2021/06/10 02:12:49;;;;;;;0.40;0.40;;;15.10;68.40;;;;;;5114467;28;20035;-76
2021/06/10 02:15:17;;;;;;;0.80;0.47;;;15.10;68.50;;;;;;5062556;28;20374;-76
2021/06/10 02:17:44;;;;;;;0.60;0.40;;;15.10;68.70;;;;;;5096060;28;20417;-75
2021/06/10 02:20:15;;;;;;;0.70;0.52;;;15.00;68.70;;;;;;5096142;28;20043;-74
2021/06/10 02:22:41;;;;;;;0.50;0.50;;;15.00;68.80;;;;;;5114245;28;20122;-75
2021/06/10 02:25:08;;;;;;;0.55;0.47;;;15.00;68.80;;;;;;5095936;28;20201;-74
2021/06/10 02:27:34;;;;;;;0.77;0.43;;;15.00;68.90;;;;;;5096221;28;20032;-75
2021/06/10 02:30:00;;;;;;;0.80;0.50;;;15.00;69.00;;;;;;5114431;28;20169;-75
2021/06/10 02:32:25;;;;;;;0.47;0.47;;;15.00;69.00;;;;;;5114155;28;20122;-74
2021/06/10 02:34:51;;;;;;;0.70;0.50;;;14.90;69.10;;;;;;5114553;28;20513;-75
2021/06/10 02:37:20;;;;;;;0.60;0.50;;;14.90;69.10;;;;;;5113880;28;20051;-76
2021/06/10 02:39:48;;;;;;;0.40;0.40;;;14.90;69.20;;;;;;5078932;28;20135;-75
2021/06/10 02:42:17;;;;;;;0.60;0.60;;;14.90;69.30;;;;;;5113863;28;20096;-76
2021/06/10 02:44:47;;;;;;;0.73;0.40;;;14.80;69.20;;;;;;5034239;28;20075;-77
2021/06/10 02:47:15;;;;;;;0.40;0.40;;;14.90;69.40;;;;;;5051053;28;20514;-76
2021/06/10 02:49:45;;;;;;;0.40;0.40;;;14.90;69.40;;;;;;5034662;28;20486;-75
2021/06/10 02:52:12;;;;;;;0.50;0.50;;;14.80;69.50;;;;;;5018349;28;20037;-75
2021/06/10 02:54:38;;;;;;;0.50;0.50;;;14.80;69.50;;;;;;5034743;28;20049;-75
2021/06/10 02:57:07;;;;;;;0.30;0.30;;;14.80;69.60;;;;;;5034945;28;20099;-75
2021/06/10 02:59:35;;;;;;;0.50;0.50;;;14.80;69.60;;;;;;5034632;28;20041;-75
2021/06/10 03:02:02;;;;;;;0.50;0.50;;;14.80;69.70;;;;;;5034322;28;20068;-75
2021/06/10 03:04:28;;;;;;;0.57;0.57;;;14.80;69.70;;;;;;5034939;28;20457;-75
2021/06/10 03:06:55;;;;;;;0.52;0.47;;;14.80;69.80;;;;;;5034480;28;20041;-75
2021/06/10 03:09:22;;;;;;;0.57;0.57;;;14.80;69.90;;;;;;5033781;28;20052;-75
2021/06/10 03:11:48;;;;;;;0.63;0.38;;;14.80;70.00;;;;;;5050921;28;20111;-75
2021/06/10 03:14:17;;;;;;;0.43;0.43;;;14.80;70.00;;;;;;5034481;28;20045;-75
2021/06/10 03:16:45;;;;;;;0.40;0.40;;;14.80;70.10;;;;;;5074951;28;20043;-75
2021/06/10 03:19:11;;;;;;;0.40;0.40;;;14.70;70.10;;;;;;5078553;28;20479;-75
2021/06/10 03:21:37;;;;;;;0.40;0.40;;;14.70;70.20;;;;;;5078522;28;20053;-75
2021/06/10 03:24:03;;;;;;;0.40;0.40;;;14.70;70.30;;;;;;5094913;28;20043;-75
2021/06/10 03:26:33;;;;;;;0.40;0.40;;;14.70;70.30;;;;;;5078458;28;20039;-75
2021/06/10 03:28:59;;;;;;;0.65;0.60;;;14.70;70.30;;;;;;5079181;28;20039;-75
2021/06/10 03:31:25;;;;;;;0.60;0.60;;;14.70;70.40;;;;;;5078071;28;20031;-74
2021/06/10 03:33:52;;;;;;;0.50;0.50;;;14.70;70.50;;;;;;5094869;28;20040;-75
2021/06/10 03:36:19;;;;;;;0.32;0.32;;;14.70;70.60;;;;;;5113805;28;20036;-75
2021/06/10 03:38:46;;;;;;;0.63;0.50;;;14.60;70.60;;;;;;5078065;28;20082;-75
2021/06/10 03:41:13;;;;;;;0.38;0.38;;;14.60;70.60;;;;;;5095641;28;20036;-75
2021/06/10 03:43:40;;;;;;;0.60;0.57;;;14.60;70.70;;;;;;5094614;28;20043;-75
2021/06/10 03:46:08;;;;;;;0.45;0.45;;;14.60;70.70;;;;;;5095182;28;20042;-74
2021/06/10 03:48:37;;;;;;;0.52;0.45;;;14.60;70.80;;;;;;5112971;28;20047;-75
2021/06/10 03:51:13;;;;;;;1.02;0.60;;;14.60;70.80;;;;;;5094617;28;20051;-75
2021/06/10 03:53:39;;;;;;;0.77;0.50;;;14.60;70.90;;;;;;5061506;28;20693;-76
2021/06/10 03:56:05;;;;;;;0.65;0.50;;;14.60;70.90;;;;;;5094727;28;20075;-76
2021/06/10 03:58:32;;;;;;;0.70;0.68;;;14.50;70.90;;;;;;5077953;28;20118;-77
2021/06/10 04:00:58;;;;;;;0.40;0.40;;;14.60;71.00;;;;;;5094638;28;20044;-76
2021/06/10 04:03:24;;;;;;;0.90;0.75;;;14.60;71.10;;;;;;5094559;28;20057;-76
2021/06/10 04:05:50;;;;;;;0.63;0.63;;;14.60;71.10;;;;;;5078043;28;20027;-76
2021/06/10 04:08:16;;;;;;;0.75;0.70;;;14.60;71.10;;;;;;5095225;28;20035;-76
2021/06/10 04:10:41;;;;;;;0.82;0.68;;;14.60;71.10;;;;;;5094728;28;20474;-77
2021/06/10 04:13:08;;;;;;;0.90;0.60;;;14.60;71.10;;;;;;5094862;28;20058;-78
2021/06/10 04:15:33;;;;;;;0.70;0.60;;;14.60;71.10;;;;;;5077745;28;20055;-77
2021/06/10 04:17:59;;;;;;;0.98;0.68;;;14.60;71.10;;;;;;5094728;28;20039;-77
2021/06/10 04:20:25;;;;;;;0.70;0.70;;;14.70;71.20;;;;;;5093625;28;20040;-78
2021/06/10 04:22:51;;;;;;;0.70;0.70;;;14.70;71.10;;;;;;5077689;28;20397;-77
2021/06/10 04:25:17;;;;;;;0.90;0.70;;;14.70;71.10;;;;;;5077561;28;20046;-77
2021/06/10 04:27:42;;;;;;;0.70;0.70;;;14.60;71.00;;;;;;5112695;28;20036;-77
2021/06/10 04:30:11;;;;;;;0.57;0.57;;;14.70;71.10;;;;;;5112926;28;20046;-77
2021/06/10 04:32:37;;;;;;;0.98;0.80;;;14.70;71.00;;;;;;5077679;28;20436;-77
2021/06/10 04:35:05;;;;;;;0.60;0.57;;;14.80;71.10;;;;;;5060868;28;20035;-77
2021/06/10 04:37:31;;;;;;;0.65;0.52;;;14.80;71.10;;;;;;5094527;28;20043;-77
2021/06/10 04:39:58;;;;;;;0.50;0.50;;;14.90;71.10;;;;;;5093490;28;20040;-77
2021/06/10 04:42:24;;;;;;;0.82;0.60;;;14.90;71.00;;;;;;5094611;28;20039;-77
2021/06/10 04:44:49;;;;;;;0.90;0.52;;;14.90;70.90;;;;;;5094307;28;20135;-77
2021/06/10 04:47:16;;;;;;;0.30;0.30;;;15.00;70.90;;;;;;5093600;28;20134;-77
2021/06/10 04:49:42;;;;;;;0.40;0.40;;;15.10;70.80;;;;;;5094018;28;20036;-77
2021/06/10 04:52:08;;;;;;;0.65;0.45;;;15.00;70.70;;;;;;5092497;28;20104;-77
2021/06/10 04:54:34;;;;;;;0.40;0.40;;;15.10;70.70;;;;;;5112574;28;20039;-77
2021/06/10 04:57:01;;;;;;;0.55;0.55;;;15.20;70.70;;;;;;5076503;28;20040;-77
2021/06/10 04:59:26;;;;;;;0.50;0.50;;;15.20;70.60;;;;;;5077564;28;20180;-77
2021/06/10 05:01:52;;;;;;;0.50;0.50;;;15.20;70.50;;;;;;5094565;28;20068;-77
2021/06/10 05:04:18;;;;;;;0.50;0.50;;;15.40;70.40;;;;;;5112332;28;20065;-77
2021/06/10 05:06:43;;;;;;;0.70;0.70;;;15.40;70.40;;;;;;5112069;28;20038;-77
2021/06/10 05:09:09;;;;;;;0.60;0.55;;;15.60;70.30;;;;;;5093827;28;20047;-77
2021/06/10 05:11:35;;;;;;;0.60;0.60;;;15.70;70.00;;;;;;5076925;28;20077;-77
2021/06/10 05:14:01;;;;;;;0.93;0.90;;;15.80;69.70;;;;;;5093491;28;20478;-77
2021/06/10 05:16:27;;;;;;;0.98;0.88;;;16.00;69.40;;;;;;5060157;28;20083;-77
2021/06/10 05:18:53;;;;;;;0.80;0.80;;;16.00;69.10;;;;;;5075092;28;20127;-78
2021/06/10 05:21:19;;;;;;;1.15;0.90;;;16.20;68.90;;;;;;5093648;28;20083;-77
2021/06/10 05:23:44;;;;;;;1.00;0.93;;;16.30;68.70;;;;;;5111814;28;20134;-77
2021/06/10 05:26:10;;;;;;;0.95;0.85;;;16.50;68.60;;;;;;5093588;28;20075;-77
2021/06/10 05:28:36;;;;;;;0.80;0.73;;;16.60;68.40;;;;;;5093695;28;20032;-77
2021/06/10 05:31:05;;;;;;;1.35;0.95;;;16.70;68.20;;;;;;5094530;28;20039;-78
2021/06/10 05:33:31;;;;;;;0.80;0.80;;;16.80;68.00;;;;;;5096412;28;20052;-78
2021/06/10 05:35:56;;;;;;;0.85;0.85;;;17.00;68.60;;;;;;5115371;28;20130;-77
2021/06/10 05:38:22;;;;;;;1.77;1.13;;;17.10;67.80;;;;;;5097028;28;20071;-77
2021/06/10 05:40:48;;;;;;;1.10;1.00;;;17.20;67.70;;;;;;5079201;28;20048;-77
2021/06/10 05:43:14;;;;;;;1.70;0.90;;;17.30;67.60;;;;;;5096970;28;20093;-77
2021/06/10 05:45:39;;;;;;;1.20;1.10;;;17.50;67.70;;;;;;5096938;28;20066;-78
2021/06/10 05:48:06;;;;;;;1.02;0.80;;;17.40;67.40;;;;;;5096098;28;20547;-78
2021/06/10 05:50:32;;;;;;;0.98;0.82;;;17.60;67.50;;;;;;5079121;28;20044;-78
2021/06/10 05:52:58;;;;;;;0.90;0.90;;;17.60;67.40;;;;;;5096655;28;20044;-77
2021/06/10 05:55:23;;;;;;;1.80;1.33;;;17.70;67.40;;;;;;5079760;28;20396;-77
2021/06/10 05:57:49;;;;;;;1.42;1.00;;;17.80;67.30;;;;;;5079121;28;20097;-77
2021/06/10 06:00:17;;;;;;;0.60;0.60;;;17.90;67.30;;;;;;5078296;28;20047;-77
2021/06/10 06:02:46;;;;;;;1.25;1.00;;;17.90;67.20;;;;;;5096268;28;20035;-78
2021/06/10 06:05:12;;;;;;;0.75;0.70;;;18.00;67.20;;;;;;5080291;28;20043;-78
2021/06/10 06:07:38;;;;;;;0.88;0.88;;;18.10;67.20;;;;;;5079706;28;20506;-78
2021/06/10 06:10:05;;;;;;;1.02;0.90;;;18.20;67.10;;;;;;5079929;28;20512;-77
2021/06/10 06:12:32;;;;;;;1.33;1.10;;;18.30;67.00;;;;;;5114845;28;20062;-77
2021/06/10 06:14:58;;;;;;;1.27;1.02;;;18.40;67.00;;;;;;5114866;28;20043;-77
2021/06/10 06:17:24;;;;;;;1.13;0.90;;;18.50;66.90;;;;;;5114449;28;20496;-78
2021/06/10 06:19:50;;;;;;;1.90;1.20;;;18.60;66.80;;;;;;5114522;28;20481;-77
2021/06/10 06:22:15;;;;;;;1.58;1.30;;;18.80;66.80;;;;;;5114263;28;20052;-77
2021/06/10 06:24:41;;;;;;;1.52;1.10;;;18.80;66.60;;;;;;5096103;28;20122;-77
2021/06/10 06:27:08;;;;;;;1.33;1.10;;;18.90;66.50;;;;;;5096227;28;20122;-77
2021/06/10 06:29:35;;;;;;;1.00;0.90;;;19.00;66.30;;;;;;5096359;28;20458;-77
2021/06/10 06:32:02;;;;;;;0.90;0.82;;;19.10;66.30;;;;;;5096611;28;20452;-77
2021/06/10 06:34:28;;;;;;;1.38;1.08;;;19.30;66.20;;;;;;5111233;28;20051;-79
2021/06/10 06:36:56;;;;;;;2.15;1.40;;;19.30;65.90;;;;;;5207659;22;20121;-79
2021/06/10 06:39:22;;;;;;;1.25;1.10;;;19.40;65.80;;;;;;5028156;28;20033;-79
2021/06/10 06:41:48;;;;;;;1.23;1.10;;;19.60;65.70;;;;;;5051057;28;20144;-79
2021/06/10 06:44:14;;;;;;;1.10;1.00;;;19.70;65.50;;;;;;5135186;22;20072;-78
2021/06/10 06:46:40;;;;;;;1.30;1.20;;;19.80;65.40;;;;;;5085339;28;20044;-78
2021/06/10 06:49:06;;;;;;;1.45;1.13;;;19.90;65.20;;;;;;5061973;22;20073;-78
2021/06/10 06:51:32;;;;;;;0.93;0.90;;;20.10;65.10;;;;;;5070289;28;20037;-78
2021/06/10 06:53:58;;;;;;;1.20;1.10;;;20.20;65.00;;;;;;5064603;28;20051;-79
2021/06/10 06:56:24;;;;;;;1.30;1.17;;;20.30;64.90;;;;;;5067370;28;20479;-78
2021/06/10 06:58:51;;;;;;;1.13;0.98;;;20.40;64.80;;;;;;5055361;28;20047;-78
2021/06/10 07:01:17;;;;;;;1.30;1.08;;;20.60;64.80;;;;;;5058331;28;20045;-82
2021/06/10 07:03:43;;;;;;;1.30;1.10;;;20.70;64.50;;;;;;5037598;28;20410;-73
2021/06/10 07:06:09;;;;;;;1.52;1.02;;;20.80;64.30;;;;;;5033293;28;20390;-74
2021/06/10 07:08:34;;;;;;;0.93;0.90;;;21.00;64.30;;;;;;5034792;28;20433;-75
2021/06/10 07:11:01;;;;;;;1.00;0.90;;;21.10;64.20;;;;;;5052763;28;20116;-76
2021/06/10 07:13:27;;;;;;;1.20;1.00;;;21.20;64.00;;;;;;5051882;28;20037;-74
2021/06/10 07:15:53;;;;;;;1.10;0.90;;;21.40;63.70;;;;;;5034621;28;20063;-74
2021/06/10 07:18:19;;;;;;;0.70;0.70;;;21.60;63.50;;;;;;5051458;28;20048;-74
2021/06/10 07:20:44;;;;;;;0.75;0.75;;;21.80;63.30;;;;;;5051505;28;20045;-75
2021/06/10 07:23:11;;;;;;;0.82;0.82;;;22.00;62.90;;;;;;5052293;28;20403;-76
2021/06/10 07:25:37;;;;;;;0.63;0.63;;;22.10;62.60;;;;;;5051378;28;20037;-75
2021/06/10 07:28:04;;;;;;;0.80;0.80;;;22.30;62.30;;;;;;5050481;28;20384;-74
2021/06/10 07:30:31;;;;;;;0.65;0.65;;;22.50;62.10;;;;;;5034062;28;20041;-74
2021/06/10 07:32:56;;;;;;;0.70;0.70;;;22.60;61.70;;;;;;5052922;28;20068;-74
2021/06/10 07:35:23;;;;;;;0.50;0.50;;;22.80;61.40;;;;;;5055485;28;20041;-74
2021/06/10 07:37:50;;;;;;;0.60;0.60;;;22.90;61.10;;;;;;5059313;28;20105;-75
2021/06/10 07:40:17;;;;;;;0.73;0.73;;;23.10;60.90;;;;;;5043549;28;20056;-76
2021/06/10 07:42:43;;;;;;;0.50;0.50;;;23.20;60.60;;;;;;5059206;28;20049;-74
2021/06/10 07:45:10;;;;;;;0.73;0.63;;;23.40;60.30;;;;;;5057970;28;20041;-75
2021/06/10 07:47:36;;;;;;;0.52;0.52;;;23.50;60.10;;;;;;5052973;28;20047;-77
2021/06/10 07:50:03;;;;;;;0.60;0.60;;;23.60;59.90;;;;;;5056523;28;20132;-75
2021/06/10 07:52:29;;;;;;;0.40;0.40;;;23.80;59.70;;;;;;5055705;28;20033;-76
2021/06/10 07:54:54;;;;;;;0.57;0.57;;;23.90;59.50;;;;;;5053560;28;20475;-76
2021/06/10 07:57:20;;;;;;;0.52;0.52;;;24.00;59.40;;;;;;5036519;28;20045;-76
2021/06/10 07:59:47;;;;;;;0.70;0.70;;;24.10;59.20;;;;;;5035647;28;20045;-75
2021/06/10 08:02:12;;;;;;;0.50;0.50;;;24.10;59.00;;;;;;5051089;28;20033;-74
2021/06/10 08:04:38;;;;;;;0.50;0.50;;;24.30;58.90;;;;;;5033409;28;20123;-74
2021/06/10 08:07:04;;;;;;;1.67;0.65;;;24.30;58.80;;;;;;5053508;28;20059;-76
2021/06/10 08:09:32;;;;;;;0.60;0.60;;;24.40;58.70;;;;;;5057953;28;20095;-76
2021/06/10 08:11:59;;;;;;;0.57;0.57;;;24.50;58.70;;;;;;5051757;28;20032;-75
2021/06/10 08:14:25;;;;;;;1.08;0.57;;;24.60;58.70;;;;;;5034150;28;20053;-76
2021/06/10 08:16:51;;;;;;;0.50;0.50;;;24.70;58.60;;;;;;5056706;28;20048;-76
2021/06/10 08:19:17;;;;;;;0.80;0.80;;;24.70;58.40;;;;;;5067414;28;20048;-78
2021/06/10 08:21:43;;;;;;;1.80;0.80;;;24.80;58.40;;;;;;5051976;28;20037;-76
2021/06/10 08:24:09;;;;;;;0.73;0.68;;;24.90;58.20;;;;;;5053567;28;20048;-75
2021/06/10 08:26:35;;;;;;;1.10;1.00;;;24.90;58.30;;;;;;5049231;28;20072;-76
2021/06/10 08:29:00;;;;;;;2.83;1.05;;;25.10;58.00;;;;;;5054761;28;20124;-76
2021/06/10 08:31:27;;;;;;;0.80;0.80;;;25.20;57.90;;;;;;5057586;28;20487;-76
2021/06/10 08:33:54;;;;;;;1.10;1.00;;;25.20;57.80;;;;;;5052770;28;20136;-76
2021/06/10 08:36:21;;;;;;;1.10;1.02;;;25.40;57.80;;;;;;5051149;28;20075;-75
2021/06/10 08:38:47;;;;;;;1.75;1.05;;;25.60;57.60;;;;;;5053354;28;20037;-75
2021/06/10 08:41:14;;;;;;;0.95;0.85;;;25.70;57.50;;;;;;5033839;28;20045;-76
2021/06/10 08:43:41;;;;;;;1.15;0.80;;;25.80;57.30;;;;;;5032447;28;20045;-76
2021/06/10 08:46:10;;;;;;;0.80;0.80;;;25.80;57.30;;;;;;5052649;28;20041;-76
2021/06/10 08:48:39;;;;;;;0.77;0.77;;;25.90;57.10;;;;;;5057579;28;20037;-77
2021/06/10 08:51:07;;;;;;;0.80;0.80;;;26.00;57.10;;;;;;5063407;28;20059;-77
2021/06/10 08:53:33;;;;;;;0.90;0.90;;;26.10;57.20;;;;;;5055068;28;20041;-76
2021/06/10 08:55:59;;;;;;;0.80;0.80;;;26.20;57.10;;;;;;5053145;28;20107;-75
2021/06/10 08:58:27;;;;;;;1.27;0.93;;;26.30;56.90;;;;;;5037024;28;20081;-76
2021/06/10 09:00:56;;;;;;;0.70;0.70;;;26.30;56.90;;;;;;5057454;28;20069;-76
2021/06/10 09:03:25;;;;;;;1.23;0.82;;;26.40;57.00;;;;;;5051687;28;20044;-75
2021/06/10 09:06:09;;;;;;;0.85;0.80;;;26.50;56.80;;;;;;5053374;28;20045;-75
2021/06/10 09:08:37;;;;;;;1.15;1.05;;;26.50;56.70;;;;;;5053918;28;20171;-75
2021/06/10 09:11:15;;;;;;;0.75;0.75;;;26.60;56.60;;;;;;5056058;28;20045;-75
2021/06/10 09:13:45;;;;;;;0.98;0.90;;;26.70;56.60;;;;;;5054249;28;20049;-75
2021/06/10 09:16:22;;;;;;;0.60;0.60;;;26.80;56.50;;;;;;5054398;28;20467;-75
2021/06/10 09:18:56;;;;;;;0.70;0.70;;;26.90;56.40;;;;;;5056365;28;20033;-76
2021/06/10 09:21:26;;;;;;;1.08;0.80;;;27.10;56.20;;;;;;5055046;28;20513;-75
2021/06/10 09:23:52;;;;;;;0.80;0.80;;;27.20;56.10;;;;;;5057628;28;20045;-75
2021/06/10 09:26:18;;;;;;;1.10;0.98;;;27.30;56.00;;;;;;5056249;28;20060;-77
2021/06/10 09:28:48;;;;;;;0.82;0.82;;;27.30;55.70;;;;;;5061970;28;20048;-76
2021/06/10 09:31:30;;;;;;;0.80;0.73;;;27.40;55.70;;;;;;5052848;28;20128;-75
2021/06/10 09:33:57;;;;;;;0.70;0.70;;;27.40;55.80;;;;;;5062390;28;20083;-74
2021/06/10 09:36:24;;;;;;;1.10;1.00;;;27.40;55.80;;;;;;5062851;28;20096;-74
2021/06/10 09:39:06;;;;;;;0.73;0.73;;;27.50;55.80;;;;;;5054538;28;20112;-74
2021/06/10 09:41:32;;;;;;;0.80;0.80;;;27.50;55.70;;;;;;5058441;28;20049;-76
2021/06/10 09:43:58;;;;;;;0.70;0.70;;;27.50;55.80;;;;;;5063104;28;20033;-77
2021/06/10 09:46:23;;;;;;;1.38;0.90;;;27.50;55.80;;;;;;5041948;28;20036;-76
2021/06/10 09:49:06;;;;;;;1.10;1.00;;;27.50;55.60;;;;;;5052310;28;20116;-76
2021/06/10 09:51:32;;;;;;;0.88;0.88;;;27.50;55.60;;;;;;5053289;28;20037;-75
2021/06/10 09:53:59;;;;;;;0.80;0.80;;;27.40;55.80;;;;;;5036215;28;20129;-75
2021/06/10 09:56:25;;;;;;;1.05;0.95;;;27.50;55.80;;;;;;5036258;28;20040;-76
2021/06/10 09:58:57;;;;;;;0.85;0.85;;;27.50;55.60;;;;;;5036076;28;20049;-75
2021/06/10 10:01:24;;;;;;;1.00;0.90;;;27.60;55.50;;;;;;5054790;28;20049;-77
2021/06/10 10:03:51;;;;;;;2.00;0.90;;;27.60;55.40;;;;;;5061524;28;20056;-76
2021/06/10 10:06:24;;;;;;;1.10;0.88;;;27.60;55.30;;;;;;5059849;28;20052;-76
2021/06/10 10:09:00;;;;;;;1.13;1.00;;;27.60;55.30;;;;;;5064852;28;20037;-75
2021/06/10 10:11:26;;;;;;;0.95;0.90;;;27.70;55.30;;;;;;5046307;28;20144;-75
2021/06/10 10:13:55;;;;;;;0.80;0.80;;;27.60;55.10;;;;;;5059536;28;20043;-75
2021/06/10 10:16:24;;;;;;;1.08;0.95;;;27.60;55.30;;;;;;5056018;28;20041;-74
2021/06/10 10:18:53;;;;;;;1.10;1.00;;;27.60;55.20;;;;;;5056060;28;20047;-74
2021/06/10 10:21:25;;;;;;;1.50;1.23;;;27.70;55.20;;;;;;5064305;28;20037;-74
2021/06/10 10:23:52;;;;;;;0.73;0.73;;;27.80;55.00;;;;;;5035359;28;20076;-74
2021/06/10 10:26:18;;;;;;;0.90;0.90;;;27.80;55.00;;;;;;5036888;28;20028;-75
2021/06/10 10:28:44;;;;;;;1.50;1.00;;;27.80;54.90;;;;;;5065543;28;20037;-75
2021/06/10 10:31:12;;;;;;;0.90;0.90;;;27.80;54.80;;;;;;5068641;28;20033;-77
2021/06/10 10:33:47;;;;;;;1.90;0.75;;;27.80;54.70;;;;;;5076682;28;20060;-77
2021/06/10 10:36:34;;;;;;;1.10;1.00;;;27.80;54.60;;;;;;5044969;28;20455;-77
2021/06/10 10:39:04;;;;;;;0.70;0.70;;;27.80;54.30;;;;;;5059346;28;20438;-76
2021/06/10 10:41:30;;;;;;;0.73;0.73;;;27.80;54.60;;;;;;5062995;28;20036;-76
2021/06/10 10:44:10;;;;;;;0.80;0.70;;;27.70;54.70;;;;;;5064028;28;20049;-75
2021/06/10 10:46:36;;;;;;;0.75;0.75;;;27.70;54.50;;;;;;5061510;28;20040;-75
2021/06/10 10:49:21;;;;;;;0.70;0.70;;;27.80;54.50;;;;;;5065340;28;20411;-75
2021/06/10 10:51:46;;;;;;;0.75;0.70;;;27.90;54.10;;;;;;5042389;28;20442;-75
2021/06/10 10:54:31;;;;;;;0.63;0.60;;;28.00;54.10;;;;;;5052119;28;20048;-75
2021/06/10 10:56:57;;;;;;;1.00;0.88;;;28.00;53.70;;;;;;5057033;28;20049;-75
2021/06/10 10:59:23;;;;;;;0.60;0.57;;;28.00;53.60;;;;;;5058302;28;20051;-75
2021/06/10 11:02:03;;;;;;;0.60;0.60;;;28.00;53.70;;;;;;5054608;28;20494;-74
2021/06/10 11:04:58;;;;;;;0.45;0.45;;;28.00;53.50;;;;;;5053918;28;20068;-75
2021/06/10 11:07:51;;;;;;;0.73;0.70;;;28.00;53.50;;;;;;5053727;28;20188;-75
2021/06/10 11:10:51;;;;;;;1.00;1.00;;;28.00;53.50;;;;;;5052132;28;20044;-76
2021/06/10 11:13:26;;;;;;;0.80;0.80;;;27.90;53.40;;;;;;5051763;28;20067;-75
2021/06/10 11:15:55;;;;;;;0.90;0.77;;;27.80;53.30;;;;;;5042809;28;20042;-75
2021/06/10 11:18:39;;;;;;;0.65;0.65;;;27.70;53.30;;;;;;5070704;28;20026;-76
2021/06/10 11:21:06;;;;;;;1.05;0.85;;;27.70;53.40;;;;;;5041206;28;20094;-75
2021/06/10 11:23:32;;;;;;;0.85;0.82;;;27.70;53.30;;;;;;5059656;28;20053;-76
2021/06/10 11:26:01;;;;;;;1.63;1.15;;;27.70;53.20;;;;;;5042107;28;20123;-76
2021/06/10 11:28:30;;;;;;;0.90;0.90;;;27.80;53.00;;;;;;5036426;28;20041;-76
2021/06/10 11:31:14;;;;;;;0.93;0.93;;;27.80;53.40;;;;;;5051506;28;20029;-78
2021/06/10 11:33:41;;;;;;;0.85;0.80;;;27.80;52.70;;;;;;5054885;28;20033;-77
2021/06/10 11:36:09;;;;;;;0.80;0.80;;;27.80;52.80;;;;;;5053684;28;20067;-76
2021/06/10 11:38:52;;;;;;;0.60;0.60;;;27.70;52.80;;;;;;5042908;28;20040;-76
2021/06/10 11:41:21;;;;;;;0.65;0.63;;;27.80;52.60;;;;;;5065774;28;20052;-76
2021/06/10 11:43:54;;;;;;;0.82;0.82;;;27.90;52.70;;;;;;5054590;28;20041;-76
2021/06/10 11:46:20;;;;;;;1.20;0.80;;;27.90;52.50;;;;;;5047091;28;20037;-77
2021/06/10 11:48:50;;;;;;;1.10;1.00;;;27.90;52.50;;;;;;5055180;28;20445;-76
2021/06/10 11:51:22;;;;;;;0.70;0.70;;;27.80;52.30;;;;;;5057964;28;20052;-75
2021/06/10 11:53:48;;;;;;;1.08;0.80;;;27.80;52.60;;;;;;5069928;28;20105;-75
2021/06/10 11:56:22;;;;;;;0.77;0.77;;;27.70;52.50;;;;;;5054230;28;20049;-75
2021/06/10 11:58:48;;;;;;;0.80;0.80;;;27.70;52.50;;;;;;5063685;28;20051;-74
2021/06/10 12:01:14;;;;;;;0.82;0.80;;;27.80;52.20;;;;;;5053016;28;20045;-76
2021/06/10 12:03:41;;;;;;;0.82;0.60;;;27.80;52.00;;;;;;5058894;28;20049;-74
2021/06/10 12:06:09;;;;;;;1.05;0.70;;;27.80;51.80;;;;;;5056904;28;20029;-75
2021/06/10 12:08:36;;;;;;;0.70;0.70;;;27.70;51.80;;;;;;5056452;28;20029;-75
2021/06/10 12:11:07;;;;;;;1.25;0.98;;;27.70;51.80;;;;;;5055094;28;20037;-75
2021/06/10 12:13:35;;;;;;;0.77;0.77;;;27.60;51.70;;;;;;5055161;28;20041;-75
2021/06/10 12:16:03;;;;;;;0.93;0.70;;;27.60;51.60;;;;;;5054881;28;20029;-77
2021/06/10 12:18:30;;;;;;;0.70;0.70;;;27.60;51.50;;;;;;5066927;28;20102;-76
2021/06/10 12:21:05;;;;;;;0.47;0.40;;;27.60;51.60;;;;;;5065388;28;20489;-75
2021/06/10 12:23:38;;;;;;;0.70;0.70;;;27.60;51.50;;;;;;5035814;28;20029;-74
2021/06/10 12:26:15;;;;;;;0.52;0.52;;;27.60;50.90;;;;;;5033817;28;20088;-74
2021/06/10 12:28:45;;;;;;;0.45;0.45;;;27.60;50.90;;;;;;5051731;28;20395;-74
2021/06/10 12:31:15;;;;;;;0.73;0.73;;;27.60;50.90;;;;;;5051689;28;20116;-74
2021/06/10 12:33:44;;;;;;;1.60;0.70;;;27.70;50.70;;;;;;5052260;28;20505;-74
2021/06/10 12:36:25;;;;;;;0.63;0.63;;;27.60;50.30;;;;;;5049862;28;20513;-74
2021/06/10 12:38:55;;;;;;;0.65;0.60;;;27.60;50.00;;;;;;5051407;28;20082;-74
2021/06/10 12:41:39;;;;;;;0.55;0.55;;;27.60;50.00;;;;;;5036808;28;20095;-74
2021/06/10 12:44:12;;;;;;;0.60;0.60;;;27.50;49.90;;;;;;5036632;28;20049;-74
2021/06/10 12:46:56;;;;;;;0.60;0.60;;;27.50;50.00;;;;;;5036897;28;20044;-74
2021/06/10 12:49:43;;;;;;;0.60;0.60;;;27.40;49.80;;;;;;5055417;28;20037;-74
2021/06/10 12:52:14;;;;;;;0.60;0.60;;;27.40;50.00;;;;;;5054297;28;20029;-75
2021/06/10 12:54:42;;;;;;;0.60;0.60;;;27.30;49.90;;;;;;5055428;28;20095;-74